x

La Perouse Bank (46206) Wave Buoy

6:00pm - Thu 29th Jan 2015 All times are PST. -8 hours from GMT.

  • Sig Wave height 5.9ft
  • Peak Period 10s
  • Wind
    11mph, 13mph gusts
  • Sea Temp 50°f
  • Air Temp 50°f
  • Sea Pressure 1026.7mb
  • La Perouse Bank
  • La Perouse Bank

More Historic Weather Station data

Upgrade to MSW Pro to gain access to the past 30 days of data for over 8000 Wavebouys and Weather Stations around the globe.

Join Pro

Comparision Forecast

View Surf forecast
   
Thu 01/29 6:00pm 6ft 10s 11 13 mph 1026.7mb 50f 50f
5:00pm 6ft 10s 9 11 mph 1026.8mb 50f 50f
4:00pm 6.5ft 10s 11 16 mph 1026.6mb 51f 50f
3:00pm 6ft 10s 11 13 mph 1027mb 51f 50f
2:00pm 6ft 10s 11 16 mph 1027mb 51f 50f
1:00pm 6ft 10s 11 13 mph 1027.7mb 51f 49f
12:00pm 6ft 11s 11 16 mph 1028.1mb 51f 49f
11:00am 5.5ft 10s 11 16 mph 1028.2mb 51f 49f
10:00am 5ft 11s 13 16 mph 1028.3mb 51f 49f
9:00am 5.5ft 11s 13 16 mph 1028.1mb 51f 49f
8:00am 5.5ft 12s 11 13 mph 1028.5mb 51f 49f
7:00am 5ft 11s 11 13 mph 1027.9mb 51f 49f
6:00am 5ft 11s 11 13 mph 1027.4mb 51f 49f
5:00am 4.5ft 13s 13 16 mph 1027.4mb 51f 49f
4:00am 5ft 17s 13 16 mph 1027.8mb 51f 49f
3:00am 4.5ft 17s 16 18 mph 1028.1mb 51f 49f
2:00am 4.5ft 17s 18 20 mph 1028.3mb 51f 49f
1:00am 4.5ft 17s 18 22 mph 1028.5mb 51f 48f
12:00am 4.5ft 18s 18 22 mph 1028.3mb 51f 49f
Wed 01/28 11:00pm 4.5ft 18s 18 25 mph 1028.1mb 50f 49f
10:00pm 4ft 18s 18 22 mph 1027.8mb 50f 49f
9:00pm 4.5ft 18s 18 22 mph 1027.8mb 50f 49f
8:00pm 4ft 8s 18 22 mph 1027.9mb 50f 50f
7:00pm 4ft 18s 18 22 mph 1027.7mb 50f 50f
6:00pm 4.5ft 18s 18 22 mph 1027.8mb 50f 50f
5:00pm 4ft 11s 18 20 mph 1027.7mb 50f 49f
4:00pm 3.5ft 9s 16 20 mph 1027.7mb 50f 49f
3:00pm 4ft 13s 13 18 mph 1027.8mb 50f 49f
2:00pm 4.5ft 9s 11 13 mph 1028.2mb 50f 48f
1:00pm 4.5ft 10s 9 13 mph 1028.9mb 50f 48f
12:00pm 4.5ft 9s 9 11 mph 1029.3mb 50f 48f
11:00am 5ft 9s 11 16 mph 1029.6mb 50f 47f
10:00am 5ft 13s 7 11 mph 1029.4mb 50f 48f
9:00am 5ft 10s 7 13 mph 1028.8mb 50f 48f
8:00am 5ft 10s 4 11 mph 1028.4mb 50f 48f
7:00am 6ft 12s 7 11 mph 1028.1mb 50f 48f
6:00am 5.5ft 12s 2 4 mph 1028mb 50f 48f
5:00am 6ft 12s 2 7 mph 1027.3mb 50f 48f
4:00am 6ft 13s 2 4 mph 1027mb 50f 48f
3:00am 5.5ft 11s 2 4 mph 1026.8mb 50f 48f
2:00am 6ft 13s 2 4 mph 1026.8mb 50f 48f
1:00am 6ft 14s 4 9 mph 1026.3mb 50f 48f
12:00am 6.5ft 14s 7 9 mph 1025.9mb 50f 48f
Tue 01/27 11:00pm 6.5ft 9s 9 11 mph 1025.5mb 50f 48f
10:00pm 7ft 9s 11 16 mph 1025mb 50f 49f
9:00pm 7ft 8s 13 16 mph 1024.5mb 51f 49f
8:00pm 8ft 11s 13 16 mph 1023.7mb 52f 48f
7:00pm 8ft 10s 13 18 mph 1022.9mb 51f 49f
6:00pm 9.5ft 10s 16 20 mph 1022.2mb 51f 49f
5:00pm 9ft 11s 18 22 mph 1021.8mb 51f 49f
4:00pm 9ft 12s 20 27 mph 1021.4mb 51f 49f
3:00pm 9ft 12s 18 22 mph 1021.1mb 51f 49f
2:00pm 8ft 8s 18 22 mph 1020.7mb 51f 49f
1:00pm 8ft 12s 18 22 mph 1020.5mb 51f 49f
12:00pm 9ft 9s 18 22 mph 1020.2mb 51f 50f
11:00am 8ft 14s 18 22 mph 1019.9mb 51f 50f
10:00am 8ft 14s 16 20 mph 1019.1mb 51f 50f
9:00am 7.5ft 13s 18 20 mph 1018.2mb 51f 50f
8:00am 7.5ft 14s 20 22 mph 1017.4mb 52f 50f
7:00am 7.5ft 13s 18 20 mph 1016.7mb 52f 50f
6:00am 8ft 8s 18 22 mph 1016.2mb 52f 49f
5:00am 8ft 10s 18 25 mph 1015.7mb 52f 48f
4:00am 8ft 10s 18 22 mph 1015.3mb 52f 49f
3:00am 7.5ft 11s 16 20 mph 1014.9mb 52f 49f
2:00am 7.5ft 10s 11 16 mph 1014.7mb 52f 50f
1:00am 8ft 11s 13 18 mph 1014.2mb 52f 50f
12:00am 8ft 12s 18 25 mph 1013.8mb 52f 50f
Mon 01/26 11:00pm 7.5ft 13s 18 22 mph 1013.6mb 52f 51f
10:00pm 7.5ft 13s 18 22 mph 1013.1mb 52f 51f
9:00pm 7ft 13s 18 20 mph 1012.9mb 52f 51f
8:00pm 8ft 13s 18 22 mph 1012.4mb 52f 51f
7:00pm 7.5ft 13s 18 22 mph 1012.1mb 52f 51f
6:00pm 8ft 13s 18 20 mph 1012.1mb 52f 51f
5:00pm 8.5ft 14s 13 18 mph 1011.9mb 52f 50f
4:00pm  -   -  18
mph
- - 51f
3:00pm 8.5ft 14s 11 16 mph 1012.3mb 52f 51f
2:00pm 8ft 13s 16 20 mph 1012.2mb 51f 51f
1:00pm 8ft 11s 18 22 mph 1012.2mb 51f 52f
12:00pm 8ft 11s 22 27 mph 1011.4mb 51f 51f
11:00am 7.5ft 11s 25 31 mph 1011mb 51f 51f
10:00am 8ft 12s 22 29 mph 1010.9mb 51f 52f
9:00am 8ft 14s 22 27 mph 1010.9mb 51f 52f
8:00am 8ft 12s 22 29 mph 1010.4mb 51f 52f
7:00am 9ft 12s 20 27 mph 1010.4mb 51f 51f
6:00am 8ft 13s 22 29 mph 1010.4mb 51f 52f
5:00am 8.5ft 12s 18 22 mph 1011.1mb 51f 52f
4:00am 8.5ft 11s 16 18 mph 1011.8mb 51f 51f